sensor_id;sensor_type;location;lat;lon;timestamp;temperature;humidity
9861;DHT22;4969;52.304;4.968;2023-04-16T00:02:27;9.48;84.70
9861;DHT22;4969;52.304;4.968;2023-04-16T00:04:54;9.33;85.86
9861;DHT22;4969;52.304;4.968;2023-04-16T00:07:22;9.48;84.34
9861;DHT22;4969;52.304;4.968;2023-04-16T00:09:49;9.43;84.01
9861;DHT22;4969;52.304;4.968;2023-04-16T00:12:15;9.48;86.09
9861;DHT22;4969;52.304;4.968;2023-04-16T00:14:42;8.79;85.87
9861;DHT22;4969;52.304;4.968;2023-04-16T00:17:09;8.76;86.86
9861;DHT22;4969;52.304;4.968;2023-04-16T00:19:35;8.82;85.98
9861;DHT22;4969;52.304;4.968;2023-04-16T00:22:02;8.91;87.99
9861;DHT22;4969;52.304;4.968;2023-04-16T00:24:30;8.93;86.16
9861;DHT22;4969;52.304;4.968;2023-04-16T00:26:56;8.93;85.99
9861;DHT22;4969;52.304;4.968;2023-04-16T00:29:23;8.93;86.71
9861;DHT22;4969;52.304;4.968;2023-04-16T00:31:51;9.38;85.74
9861;DHT22;4969;52.304;4.968;2023-04-16T00:34:18;9.13;85.21
9861;DHT22;4969;52.304;4.968;2023-04-16T00:36:44;9.58;87.42
9861;DHT22;4969;52.304;4.968;2023-04-16T00:39:11;9.52;84.16
9861;DHT22;4969;52.304;4.968;2023-04-16T00:41:39;9.45;85.80
9861;DHT22;4969;52.304;4.968;2023-04-16T00:44:05;9.40;84.71
9861;DHT22;4969;52.304;4.968;2023-04-16T00:46:32;9.15;84.95
9861;DHT22;4969;52.304;4.968;2023-04-16T00:48:59;9.91;86.54
9861;DHT22;4969;52.304;4.968;2023-04-16T00:51:26;9.69;85.76
9861;DHT22;4969;52.304;4.968;2023-04-16T00:53:52;9.44;84.53
9861;DHT22;4969;52.304;4.968;2023-04-16T00:56:20;9.33;85.86
9861;DHT22;4969;52.304;4.968;2023-04-16T00:58:49;8.82;85.20
9861;DHT22;4969;52.304;4.968;2023-04-16T01:01:16;9.00;86.55
9861;DHT22;4969;52.304;4.968;2023-04-16T01:03:44;8.98;85.28
9861;DHT22;4969;52.304;4.968;2023-04-16T01:06:11;9.03;86.84
9861;DHT22;4969;52.304;4.968;2023-04-16T01:08:38;9.15;84.15
9861;DHT22;4969;52.304;4.968;2023-04-16T01:11:05;8.98;85.71
9861;DHT22;4969;52.304;4.968;2023-04-16T01:13:32;9.44;86.05
9861;DHT22;4969;52.304;4.968;2023-04-16T01:16:00;9.26;83.94
9861;DHT22;4969;52.304;4.968;2023-04-16T01:18:27;8.85;85.56
9861;DHT22;4969;52.304;4.968;2023-04-16T01:20:55;9.45;87.34
9861;DHT22;4969;52.304;4.968;2023-04-16T01:23:21;9.16;84.02
9861;DHT22;4969;52.304;4.968;2023-04-16T01:25:48;9.20;84.22
9861;DHT22;4969;52.304;4.968;2023-04-16T01:28:14;9.30;84.09
9861;DHT22;4969;52.304;4.968;2023-04-16T01:30:41;8.87;85.11
9861;DHT22;4969;52.304;4.968;2023-04-16T01:33:09;9.26;85.45
9861;DHT22;4969;52.304;4.968;2023-04-16T01:35:36;9.44;84.45
9861;DHT22;4969;52.304;4.968;2023-04-16T01:38:04;9.52;84.50
9861;DHT22;4969;52.304;4.968;2023-04-16T01:40:32;9.62;83.01
9861;DHT22;4969;52.304;4.968;2023-04-16T01:42:58;9.27;83.86
9861;DHT22;4969;52.304;4.968;2023-04-16T01:45:25;9.51;84.01
9861;DHT22;4969;52.304;4.968;2023-04-16T01:47:51;10.08;85.38
9861;DHT22;4969;52.304;4.968;2023-04-16T01:50:19;10.03;82.30
9861;DHT22;4969;52.304;4.968;2023-04-16T01:52:46;9.41;83.00
9861;DHT22;4969;52.304;4.968;2023-04-16T01:55:14;9.23;83.35
9861;DHT22;4969;52.304;4.968;2023-04-16T01:57:41;9.55;83.98
9861;DHT22;4969;52.304;4.968;2023-04-16T02:00:08;9.73;83.96
9861;DHT22;4969;52.304;4.968;2023-04-16T02:02:34;8.98;84.30
9861;DHT22;4969;52.304;4.968;2023-04-16T02:05:01;9.51;85.47
9861;DHT22;4969;52.304;4.968;2023-04-16T02:07:28;9.66;84.69
9861;DHT22;4969;52.304;4.968;2023-04-16T02:09:55;9.44;84.51
9861;DHT22;4969;52.304;4.968;2023-04-16T02:12:24;9.19;83.78
9861;DHT22;4969;52.304;4.968;2023-04-16T02:14:50;9.37;85.32
9861;DHT22;4969;52.304;4.968;2023-04-16T02:17:17;9.54;84.30
9861;DHT22;4969;52.304;4.968;2023-04-16T02:19:43;9.09;84.15
9861;DHT22;4969;52.304;4.968;2023-04-16T02:22:10;9.12;85.09
9861;DHT22;4969;52.304;4.968;2023-04-16T02:24:37;9.26;86.08
9861;DHT22;4969;52.304;4.968;2023-04-16T02:27:03;9.48;85.01
9861;DHT22;4969;52.304;4.968;2023-04-16T02:29:31;9.26;84.26
9861;DHT22;4969;52.304;4.968;2023-04-16T02:31:58;9.77;84.14
9861;DHT22;4969;52.304;4.968;2023-04-16T02:34:24;9.43;84.24
9861;DHT22;4969;52.304;4.968;2023-04-16T02:36:51;9.50;83.83
9861;DHT22;4969;52.304;4.968;2023-04-16T02:39:18;9.19;84.46
9861;DHT22;4969;52.304;4.968;2023-04-16T02:41:45;9.09;85.84
9861;DHT22;4969;52.304;4.968;2023-04-16T02:44:11;9.61;85.03
9861;DHT22;4969;52.304;4.968;2023-04-16T02:46:39;9.47;83.37
9861;DHT22;4969;52.304;4.968;2023-04-16T02:49:06;9.20;84.24
9861;DHT22;4969;52.304;4.968;2023-04-16T02:51:32;9.55;83.39
9861;DHT22;4969;52.304;4.968;2023-04-16T02:53:59;8.82;85.83
9861;DHT22;4969;52.304;4.968;2023-04-16T02:56:27;9.09;86.00
9861;DHT22;4969;52.304;4.968;2023-04-16T02:58:53;9.41;85.20
9861;DHT22;4969;52.304;4.968;2023-04-16T03:01:20;9.85;84.62
9861;DHT22;4969;52.304;4.968;2023-04-16T03:03:48;9.88;84.78
9861;DHT22;4969;52.304;4.968;2023-04-16T03:06:15;9.20;84.31
9861;DHT22;4969;52.304;4.968;2023-04-16T03:08:41;8.98;84.78
9861;DHT22;4969;52.304;4.968;2023-04-16T03:11:08;9.33;86.13
9861;DHT22;4969;52.304;4.968;2023-04-16T03:13:34;9.51;83.63
9861;DHT22;4969;52.304;4.968;2023-04-16T03:16:01;9.22;85.42
9861;DHT22;4969;52.304;4.968;2023-04-16T03:18:28;9.68;86.14
9861;DHT22;4969;52.304;4.968;2023-04-16T03:20:55;9.55;84.43
9861;DHT22;4969;52.304;4.968;2023-04-16T03:23:22;10.49;84.05
9861;DHT22;4969;52.304;4.968;2023-04-16T03:25:49;9.77;82.79
9861;DHT22;4969;52.304;4.968;2023-04-16T03:28:15;9.41;83.10
9861;DHT22;4969;52.304;4.968;2023-04-16T03:30:42;9.78;84.46
9861;DHT22;4969;52.304;4.968;2023-04-16T03:33:08;9.52;84.28
9861;DHT22;4969;52.304;4.968;2023-04-16T03:35:35;9.59;84.98
9861;DHT22;4969;52.304;4.968;2023-04-16T03:38:03;9.37;84.13
9861;DHT22;4969;52.304;4.968;2023-04-16T03:40:30;8.95;85.43
9861;DHT22;4969;52.304;4.968;2023-04-16T03:42:56;9.68;85.27
9861;DHT22;4969;52.304;4.968;2023-04-16T03:45:23;10.16;83.66
9861;DHT22;4969;52.304;4.968;2023-04-16T03:47:49;9.22;84.55
9861;DHT22;4969;52.304;4.968;2023-04-16T03:50:17;8.96;85.88
9861;DHT22;4969;52.304;4.968;2023-04-16T03:52:44;8.99;85.56
9861;DHT22;4969;52.304;4.968;2023-04-16T03:55:12;9.69;84.05
9861;DHT22;4969;52.304;4.968;2023-04-16T03:57:39;9.72;84.39
9861;DHT22;4969;52.304;4.968;2023-04-16T04:00:06;9.66;84.69
9861;DHT22;4969;52.304;4.968;2023-04-16T04:02:33;9.83;83.04
9861;DHT22;4969;52.304;4.968;2023-04-16T04:05:00;9.55;82.98
9861;DHT22;4969;52.304;4.968;2023-04-16T04:07:26;9.40;86.05
9861;DHT22;4969;52.304;4.968;2023-04-16T04:09:53;8.93;85.92
9861;DHT22;4969;52.304;4.968;2023-04-16T04:12:21;9.06;87.61
9861;DHT22;4969;52.304;4.968;2023-04-16T04:14:47;9.30;86.05
9861;DHT22;4969;52.304;4.968;2023-04-16T04:17:14;9.06;85.87
9861;DHT22;4969;52.304;4.968;2023-04-16T04:19:40;8.88;87.01
9861;DHT22;4969;52.304;4.968;2023-04-16T04:22:07;8.81;87.52
9861;DHT22;4969;52.304;4.968;2023-04-16T04:24:33;8.78;87.32
9861;DHT22;4969;52.304;4.968;2023-04-16T04:27:00;8.68;88.14
9861;DHT22;4969;52.304;4.968;2023-04-16T04:29:28;8.93;88.16
9861;DHT22;4969;52.304;4.968;2023-04-16T04:31:55;9.24;87.22
9861;DHT22;4969;52.304;4.968;2023-04-16T04:34:23;9.22;86.38
9861;DHT22;4969;52.304;4.968;2023-04-16T04:36:49;9.57;88.33
9861;DHT22;4969;52.304;4.968;2023-04-16T04:39:16;8.84;87.18
9861;DHT22;4969;52.304;4.968;2023-04-16T04:41:44;8.60;88.41
9861;DHT22;4969;52.304;4.968;2023-04-16T04:44:11;8.57;88.92
9861;DHT22;4969;52.304;4.968;2023-04-16T04:46:40;8.64;88.68
9861;DHT22;4969;52.304;4.968;2023-04-16T04:49:06;8.75;88.78
9861;DHT22;4969;52.304;4.968;2023-04-16T04:51:33;8.93;88.67
9861;DHT22;4969;52.304;4.968;2023-04-16T04:53:59;8.62;88.52
9861;DHT22;4969;52.304;4.968;2023-04-16T04:56:26;9.00;88.64
9861;DHT22;4969;52.304;4.968;2023-04-16T04:58:53;9.00;87.60
9861;DHT22;4969;52.304;4.968;2023-04-16T05:01:20;8.95;87.52
9861;DHT22;4969;52.304;4.968;2023-04-16T05:03:48;8.82;88.39
9861;DHT22;4969;52.304;4.968;2023-04-16T05:06:15;8.91;87.59
9861;DHT22;4969;52.304;4.968;2023-04-16T05:08:41;8.93;88.58
9861;DHT22;4969;52.304;4.968;2023-04-16T05:11:08;9.12;88.78
9861;DHT22;4969;52.304;4.968;2023-04-16T05:13:34;8.85;87.99
9861;DHT22;4969;52.304;4.968;2023-04-16T05:16:01;8.82;88.00
9861;DHT22;4969;52.304;4.968;2023-04-16T05:18:28;8.82;89.34
9861;DHT22;4969;52.304;4.968;2023-04-16T05:20:56;9.23;88.07
9861;DHT22;4969;52.304;4.968;2023-04-16T05:23:23;9.13;88.45
9861;DHT22;4969;52.304;4.968;2023-04-16T05:25:49;9.16;87.77
9861;DHT22;4969;52.304;4.968;2023-04-16T05:28:16;9.24;88.49
9861;DHT22;4969;52.304;4.968;2023-04-16T05:30:42;8.87;88.10
9861;DHT22;4969;52.304;4.968;2023-04-16T05:33:09;8.96;87.30
9861;DHT22;4969;52.304;4.968;2023-04-16T05:35:35;8.78;88.05
9861;DHT22;4969;52.304;4.968;2023-04-16T05:38:03;8.51;89.12
9861;DHT22;4969;52.304;4.968;2023-04-16T05:40:30;8.93;90.22
9861;DHT22;4969;52.304;4.968;2023-04-16T05:42:56;8.93;88.32
9861;DHT22;4969;52.304;4.968;2023-04-16T05:45:23;8.78;88.47
9861;DHT22;4969;52.304;4.968;2023-04-16T05:47:50;8.72;88.70
9861;DHT22;4969;52.304;4.968;2023-04-16T05:50:16;8.69;88.81
9861;DHT22;4969;52.304;4.968;2023-04-16T05:52:43;9.09;88.96
9861;DHT22;4969;52.304;4.968;2023-04-16T05:55:10;8.88;88.09
9861;DHT22;4969;52.304;4.968;2023-04-16T05:57:37;8.69;88.46
9861;DHT22;4969;52.304;4.968;2023-04-16T06:00:05;9.03;88.98
9861;DHT22;4969;52.304;4.968;2023-04-16T06:02:32;9.23;88.67
9861;DHT22;4969;52.304;4.968;2023-04-16T06:04:58;8.98;88.97
9861;DHT22;4969;52.304;4.968;2023-04-16T06:07:25;8.81;88.47
9861;DHT22;4969;52.304;4.968;2023-04-16T06:09:52;8.79;88.33
9861;DHT22;4969;52.304;4.968;2023-04-16T06:12:19;8.91;88.57
9861;DHT22;4969;52.304;4.968;2023-04-16T06:14:46;8.69;88.57
9861;DHT22;4969;52.304;4.968;2023-04-16T06:17:13;8.64;88.97
9861;DHT22;4969;52.304;4.968;2023-04-16T06:19:39;8.71;88.60
9861;DHT22;4969;52.304;4.968;2023-04-16T06:22:06;9.17;87.45
9861;DHT22;4969;52.304;4.968;2023-04-16T06:24:32;9.71;86.49
9861;DHT22;4969;52.304;4.968;2023-04-16T06:26:59;9.37;85.79
9861;DHT22;4969;52.304;4.968;2023-04-16T06:29:27;9.17;88.59
9861;DHT22;4969;52.304;4.968;2023-04-16T06:31:54;9.06;86.42
9861;DHT22;4969;52.304;4.968;2023-04-16T06:34:21;9.40;88.81
9861;DHT22;4969;52.304;4.968;2023-04-16T06:36:47;9.09;87.10
9861;DHT22;4969;52.304;4.968;2023-04-16T06:39:14;8.85;87.74
9861;DHT22;4969;52.304;4.968;2023-04-16T06:41:41;8.93;87.98
9861;DHT22;4969;52.304;4.968;2023-04-16T06:44:07;9.02;87.67
9861;DHT22;4969;52.304;4.968;2023-04-16T06:46:36;8.96;88.76
9861;DHT22;4969;52.304;4.968;2023-04-16T06:49:02;9.19;88.82
9861;DHT22;4969;52.304;4.968;2023-04-16T06:51:29;8.88;88.18
9861;DHT22;4969;52.304;4.968;2023-04-16T06:53:56;8.78;88.44
9861;DHT22;4969;52.304;4.968;2023-04-16T06:56:23;8.98;89.18
9861;DHT22;4969;52.304;4.968;2023-04-16T06:58:49;8.89;88.62
9861;DHT22;4969;52.304;4.968;2023-04-16T07:01:16;8.87;88.73
9861;DHT22;4969;52.304;4.968;2023-04-16T07:03:44;8.75;89.12
9861;DHT22;4969;52.304;4.968;2023-04-16T07:06:11;8.93;89.33
9861;DHT22;4969;52.304;4.968;2023-04-16T07:08:38;9.15;88.04
9861;DHT22;4969;52.304;4.968;2023-04-16T07:11:04;8.93;87.85
9861;DHT22;4969;52.304;4.968;2023-04-16T07:13:31;9.10;87.54
9861;DHT22;4969;52.304;4.968;2023-04-16T07:15:57;8.81;88.33
9861;DHT22;4969;52.304;4.968;2023-04-16T07:18:24;8.89;89.30
9861;DHT22;4969;52.304;4.968;2023-04-16T07:20:52;8.81;88.42
9861;DHT22;4969;52.304;4.968;2023-04-16T07:23:19;9.00;88.70
9861;DHT22;4969;52.304;4.968;2023-04-16T07:25:45;9.16;87.83
9861;DHT22;4969;52.304;4.968;2023-04-16T07:28:12;9.19;87.21
9861;DHT22;4969;52.304;4.968;2023-04-16T07:30:40;9.05;88.50
9861;DHT22;4969;52.304;4.968;2023-04-16T07:33:07;9.05;88.40
9861;DHT22;4969;52.304;4.968;2023-04-16T07:35:34;9.24;88.08
9861;DHT22;4969;52.304;4.968;2023-04-16T07:38:02;9.05;87.83
9861;DHT22;4969;52.304;4.968;2023-04-16T07:40:28;9.16;89.05
9861;DHT22;4969;52.304;4.968;2023-04-16T07:42:55;9.17;87.30
9861;DHT22;4969;52.304;4.968;2023-04-16T07:45:22;9.09;87.79
9861;DHT22;4969;52.304;4.968;2023-04-16T07:47:49;8.92;88.34
9861;DHT22;4969;52.304;4.968;2023-04-16T07:50:15;8.95;88.12
9861;DHT22;4969;52.304;4.968;2023-04-16T07:52:43;9.20;87.95
9861;DHT22;4969;52.304;4.968;2023-04-16T07:55:11;9.13;87.13
9861;DHT22;4969;52.304;4.968;2023-04-16T07:57:38;9.50;87.16
9861;DHT22;4969;52.304;4.968;2023-04-16T08:00:06;9.07;87.79
9861;DHT22;4969;52.304;4.968;2023-04-16T08:02:33;9.05;89.09
9861;DHT22;4969;52.304;4.968;2023-04-16T08:05:00;9.15;88.02
9861;DHT22;4969;52.304;4.968;2023-04-16T08:07:26;9.22;88.20
9861;DHT22;4969;52.304;4.968;2023-04-16T08:09:53;9.40;86.96
9861;DHT22;4969;52.304;4.968;2023-04-16T08:12:21;9.33;87.31
9861;DHT22;4969;52.304;4.968;2023-04-16T08:14:47;8.99;87.59
9861;DHT22;4969;52.304;4.968;2023-04-16T08:17:15;8.95;88.13
9861;DHT22;4969;52.304;4.968;2023-04-16T08:19:42;8.88;88.66
9861;DHT22;4969;52.304;4.968;2023-04-16T08:22:09;8.85;88.77
9861;DHT22;4969;52.304;4.968;2023-04-16T08:24:35;8.96;88.96
9861;DHT22;4969;52.304;4.968;2023-04-16T08:27:02;9.02;88.92
9861;DHT22;4969;52.304;4.968;2023-04-16T08:29:30;9.06;88.87
9861;DHT22;4969;52.304;4.968;2023-04-16T08:31:57;9.38;89.75
9861;DHT22;4969;52.304;4.968;2023-04-16T08:34:24;9.77;86.95
9861;DHT22;4969;52.304;4.968;2023-04-16T08:36:50;9.50;86.76
9861;DHT22;4969;52.304;4.968;2023-04-16T08:39:17;9.43;87.98
9861;DHT22;4969;52.304;4.968;2023-04-16T08:41:45;9.19;87.65
9861;DHT22;4969;52.304;4.968;2023-04-16T08:44:18;9.22;88.71
9861;DHT22;4969;52.304;4.968;2023-04-16T08:46:47;9.28;87.46
9861;DHT22;4969;52.304;4.968;2023-04-16T08:49:15;8.95;88.32
9861;DHT22;4969;52.304;4.968;2023-04-16T08:51:45;9.12;88.63
9861;DHT22;4969;52.304;4.968;2023-04-16T08:54:20;9.36;87.71
9861;DHT22;4969;52.304;4.968;2023-04-16T08:56:47;9.22;88.41
9861;DHT22;4969;52.304;4.968;2023-04-16T08:59:14;9.15;88.50
9861;DHT22;4969;52.304;4.968;2023-04-16T09:01:41;9.15;88.15
9861;DHT22;4969;52.304;4.968;2023-04-16T09:04:09;9.43;88.47
9861;DHT22;4969;52.304;4.968;2023-04-16T09:06:36;9.40;87.83
9861;DHT22;4969;52.304;4.968;2023-04-16T09:09:03;9.40;86.65
9861;DHT22;4969;52.304;4.968;2023-04-16T09:11:31;9.33;87.78
9861;DHT22;4969;52.304;4.968;2023-04-16T09:13:58;9.26;87.64
9861;DHT22;4969;52.304;4.968;2023-04-16T09:16:26;9.20;87.56
9861;DHT22;4969;52.304;4.968;2023-04-16T09:18:55;9.58;87.23
9861;DHT22;4969;52.304;4.968;2023-04-16T09:21:23;9.23;87.35
9861;DHT22;4969;52.304;4.968;2023-04-16T09:23:52;9.12;87.56
9861;DHT22;4969;52.304;4.968;2023-04-16T09:26:19;9.27;88.47
9861;DHT22;4969;52.304;4.968;2023-04-16T09:28:47;9.57;89.57
9861;DHT22;4969;52.304;4.968;2023-04-16T09:31:16;9.30;87.48
9861;DHT22;4969;52.304;4.968;2023-04-16T09:34:00;9.40;86.80
9861;DHT22;4969;52.304;4.968;2023-04-16T09:36:28;9.19;87.84
9861;DHT22;4969;52.304;4.968;2023-04-16T09:38:55;9.20;88.15
9861;DHT22;4969;52.304;4.968;2023-04-16T09:41:24;9.41;87.66
9861;DHT22;4969;52.304;4.968;2023-04-16T09:43:55;9.78;86.87
9861;DHT22;4969;52.304;4.968;2023-04-16T09:46:23;9.68;87.43
9861;DHT22;4969;52.304;4.968;2023-04-16T09:48:50;9.62;87.32
9861;DHT22;4969;52.304;4.968;2023-04-16T09:51:16;9.93;87.62
9861;DHT22;4969;52.304;4.968;2023-04-16T09:53:44;9.65;85.98
9861;DHT22;4969;52.304;4.968;2023-04-16T09:56:11;9.72;87.01
9861;DHT22;4969;52.304;4.968;2023-04-16T09:58:38;9.47;87.05
9861;DHT22;4969;52.304;4.968;2023-04-16T10:01:07;9.37;87.79
9861;DHT22;4969;52.304;4.968;2023-04-16T10:03:35;9.38;88.70
9861;DHT22;4969;52.304;4.968;2023-04-16T10:06:06;9.43;87.54
9861;DHT22;4969;52.304;4.968;2023-04-16T10:08:33;9.47;87.63
9861;DHT22;4969;52.304;4.968;2023-04-16T10:11:01;9.38;87.37
9861;DHT22;4969;52.304;4.968;2023-04-16T10:13:28;9.27;87.68
9861;DHT22;4969;52.304;4.968;2023-04-16T10:15:56;9.51;88.20
9861;DHT22;4969;52.304;4.968;2023-04-16T10:18:23;9.65;86.95
9861;DHT22;4969;52.304;4.968;2023-04-16T10:20:50;9.73;87.20
9861;DHT22;4969;52.304;4.968;2023-04-16T10:23:16;9.83;86.77
9861;DHT22;4969;52.304;4.968;2023-04-16T10:25:45;9.98;85.94
9861;DHT22;4969;52.304;4.968;2023-04-16T10:28:14;9.68;86.45
9861;DHT22;4969;52.304;4.968;2023-04-16T10:30:42;9.54;87.94
9861;DHT22;4969;52.304;4.968;2023-04-16T10:33:18;9.52;87.37
9861;DHT22;4969;52.304;4.968;2023-04-16T10:35:45;9.45;87.55
9861;DHT22;4969;52.304;4.968;2023-04-16T10:38:20;9.47;87.99
9861;DHT22;4969;52.304;4.968;2023-04-16T10:40:47;9.54;87.80
9861;DHT22;4969;52.304;4.968;2023-04-16T10:43:17;9.78;87.67
9861;DHT22;4969;52.304;4.968;2023-04-16T10:45:46;9.99;87.96
9861;DHT22;4969;52.304;4.968;2023-04-16T10:48:13;9.65;87.13
9861;DHT22;4969;52.304;4.968;2023-04-16T10:50:41;10.00;87.44
9861;DHT22;4969;52.304;4.968;2023-04-16T10:53:18;10.03;86.53
9861;DHT22;4969;52.304;4.968;2023-04-16T10:56:12;9.73;87.00
9861;DHT22;4969;52.304;4.968;2023-04-16T10:58:41;10.42;88.26
9861;DHT22;4969;52.304;4.968;2023-04-16T11:01:11;10.06;85.47
9861;DHT22;4969;52.304;4.968;2023-04-16T11:03:42;10.24;86.15
9861;DHT22;4969;52.304;4.968;2023-04-16T11:06:10;10.37;86.27
9861;DHT22;4969;52.304;4.968;2023-04-16T11:08:37;10.37;85.51
9861;DHT22;4969;52.304;4.968;2023-04-16T11:11:05;10.72;85.23
9861;DHT22;4969;52.304;4.968;2023-04-16T11:13:32;10.52;84.19
9861;DHT22;4969;52.304;4.968;2023-04-16T11:16:01;10.13;85.40
9861;DHT22;4969;52.304;4.968;2023-04-16T11:18:28;10.19;86.04
9861;DHT22;4969;52.304;4.968;2023-04-16T11:20:54;10.21;86.12
9861;DHT22;4969;52.304;4.968;2023-04-16T11:23:21;10.55;86.10
9861;DHT22;4969;52.304;4.968;2023-04-16T11:25:48;10.67;85.53
9861;DHT22;4969;52.304;4.968;2023-04-16T11:28:16;10.67;85.36
9861;DHT22;4969;52.304;4.968;2023-04-16T11:30:42;10.31;85.23
9861;DHT22;4969;52.304;4.968;2023-04-16T11:33:11;10.45;86.06
9861;DHT22;4969;52.304;4.968;2023-04-16T11:35:37;10.72;85.82
9861;DHT22;4969;52.304;4.968;2023-04-16T11:38:04;10.82;86.36
9861;DHT22;4969;52.304;4.968;2023-04-16T11:40:31;10.64;83.33
9861;DHT22;4969;52.304;4.968;2023-04-16T11:43:00;10.89;86.82
9861;DHT22;4969;52.304;4.968;2023-04-16T11:45:27;10.42;84.09
9861;DHT22;4969;52.304;4.968;2023-04-16T11:47:54;10.86;83.73
9861;DHT22;4969;52.304;4.968;2023-04-16T11:50:25;10.58;84.31
9861;DHT22;4969;52.304;4.968;2023-04-16T11:52:53;11.48;86.61
9861;DHT22;4969;52.304;4.968;2023-04-16T11:55:20;11.52;80.59
9861;DHT22;4969;52.304;4.968;2023-04-16T11:57:47;11.19;82.94
9861;DHT22;4969;52.304;4.968;2023-04-16T12:00:14;10.75;83.24
9861;DHT22;4969;52.304;4.968;2023-04-16T12:02:42;10.61;84.14
9861;DHT22;4969;52.304;4.968;2023-04-16T12:05:29;10.68;84.63
9861;DHT22;4969;52.304;4.968;2023-04-16T12:07:56;11.03;86.35
9861;DHT22;4969;52.304;4.968;2023-04-16T12:10:23;10.93;82.58
9861;DHT22;4969;52.304;4.968;2023-04-16T12:12:50;10.93;84.21
9861;DHT22;4969;52.304;4.968;2023-04-16T12:15:17;10.99;83.13
9861;DHT22;4969;52.304;4.968;2023-04-16T12:17:43;11.07;84.00
9861;DHT22;4969;52.304;4.968;2023-04-16T12:20:11;11.06;82.03
9861;DHT22;4969;52.304;4.968;2023-04-16T12:22:43;11.03;83.53
9861;DHT22;4969;52.304;4.968;2023-04-16T12:25:13;11.19;82.30
9861;DHT22;4969;52.304;4.968;2023-04-16T12:27:43;11.19;82.78
9861;DHT22;4969;52.304;4.968;2023-04-16T12:30:12;11.52;85.28
9861;DHT22;4969;52.304;4.968;2023-04-16T12:32:39;11.74;82.26
9861;DHT22;4969;52.304;4.968;2023-04-16T12:35:07;11.46;80.39
9861;DHT22;4969;52.304;4.968;2023-04-16T12:37:34;11.48;81.40
9861;DHT22;4969;52.304;4.968;2023-04-16T12:40:02;11.46;80.83
9861;DHT22;4969;52.304;4.968;2023-04-16T12:42:30;11.28;80.73
9861;DHT22;4969;52.304;4.968;2023-04-16T12:45:00;11.10;82.52
9861;DHT22;4969;52.304;4.968;2023-04-16T12:47:26;10.97;81.51
9861;DHT22;4969;52.304;4.968;2023-04-16T12:49:54;11.28;82.54
9861;DHT22;4969;52.304;4.968;2023-04-16T12:52:21;11.23;81.57
9861;DHT22;4969;52.304;4.968;2023-04-16T12:54:47;11.31;82.64
9861;DHT22;4969;52.304;4.968;2023-04-16T12:57:15;11.30;81.46
9861;DHT22;4969;52.304;4.968;2023-04-16T12:59:42;12.14;82.30
9861;DHT22;4969;52.304;4.968;2023-04-16T13:02:08;12.76;79.85
9861;DHT22;4969;52.304;4.968;2023-04-16T13:04:35;12.13;78.49
9861;DHT22;4969;52.304;4.968;2023-04-16T13:07:02;11.97;78.93
9861;DHT22;4969;52.304;4.968;2023-04-16T13:09:28;12.06;78.68
9861;DHT22;4969;52.304;4.968;2023-04-16T13:11:55;11.95;79.06
9861;DHT22;4969;52.304;4.968;2023-04-16T13:14:23;11.76;80.52
9861;DHT22;4969;52.304;4.968;2023-04-16T13:16:50;11.58;80.14
9861;DHT22;4969;52.304;4.968;2023-04-16T13:19:16;11.79;79.83
9861;DHT22;4969;52.304;4.968;2023-04-16T13:21:44;11.95;79.22
9861;DHT22;4969;52.304;4.968;2023-04-16T13:24:10;11.79;78.90
9861;DHT22;4969;52.304;4.968;2023-04-16T13:26:37;11.87;79.33
9861;DHT22;4969;52.304;4.968;2023-04-16T13:29:04;11.55;78.89
9861;DHT22;4969;52.304;4.968;2023-04-16T13:31:31;11.40;80.47
9861;DHT22;4969;52.304;4.968;2023-04-16T13:33:58;11.41;79.91
9861;DHT22;4969;52.304;4.968;2023-04-16T13:36:25;11.69;79.94
9861;DHT22;4969;52.304;4.968;2023-04-16T13:38:52;11.64;78.73
9861;DHT22;4969;52.304;4.968;2023-04-16T13:41:18;11.36;79.87
9861;DHT22;4969;52.304;4.968;2023-04-16T13:43:45;11.21;80.37
9861;DHT22;4969;52.304;4.968;2023-04-16T13:46:11;11.10;81.41
9861;DHT22;4969;52.304;4.968;2023-04-16T13:48:39;11.38;81.47
9861;DHT22;4969;52.304;4.968;2023-04-16T13:51:06;11.44;81.10
9861;DHT22;4969;52.304;4.968;2023-04-16T13:53:33;11.76;79.37
9861;DHT22;4969;52.304;4.968;2023-04-16T13:55:59;11.74;80.53
9861;DHT22;4969;52.304;4.968;2023-04-16T13:58:27;11.71;79.06
9861;DHT22;4969;52.304;4.968;2023-04-16T14:00:54;11.48;79.90
9861;DHT22;4969;52.304;4.968;2023-04-16T14:03:21;11.48;78.85
9861;DHT22;4969;52.304;4.968;2023-04-16T14:05:49;11.21;80.52
9861;DHT22;4969;52.304;4.968;2023-04-16T14:08:15;11.27;81.09
9861;DHT22;4969;52.304;4.968;2023-04-16T14:10:42;11.64;83.21
9861;DHT22;4969;52.304;4.968;2023-04-16T14:13:09;11.58;79.13
9861;DHT22;4969;52.304;4.968;2023-04-16T14:15:36;11.72;81.61
9861;DHT22;4969;52.304;4.968;2023-04-16T14:18:03;11.30;79.84
9861;DHT22;4969;52.304;4.968;2023-04-16T14:20:30;11.62;81.80
9861;DHT22;4969;52.304;4.968;2023-04-16T14:22:57;11.72;80.84
9861;DHT22;4969;52.304;4.968;2023-04-16T14:25:24;11.41;79.38
9861;DHT22;4969;52.304;4.968;2023-04-16T14:27:51;11.40;81.93
9861;DHT22;4969;52.304;4.968;2023-04-16T14:30:18;11.67;78.73
9861;DHT22;4969;52.304;4.968;2023-04-16T14:32:44;11.76;79.87
9861;DHT22;4969;52.304;4.968;2023-04-16T14:35:11;11.79;79.57
9861;DHT22;4969;52.304;4.968;2023-04-16T14:37:38;12.09;78.47
9861;DHT22;4969;52.304;4.968;2023-04-16T14:40:07;11.95;77.87
9861;DHT22;4969;52.304;4.968;2023-04-16T14:42:34;12.07;77.76
9861;DHT22;4969;52.304;4.968;2023-04-16T14:45:01;11.48;78.88
9861;DHT22;4969;52.304;4.968;2023-04-16T14:47:30;11.79;78.96
9861;DHT22;4969;52.304;4.968;2023-04-16T14:49:57;11.97;79.16
9861;DHT22;4969;52.304;4.968;2023-04-16T14:52:24;12.37;77.41
9861;DHT22;4969;52.304;4.968;2023-04-16T14:54:50;12.89;77.23
9861;DHT22;4969;52.304;4.968;2023-04-16T14:57:20;12.86;76.38
9861;DHT22;4969;52.304;4.968;2023-04-16T14:59:47;12.69;77.66
9861;DHT22;4969;52.304;4.968;2023-04-16T15:02:13;12.44;76.24
9861;DHT22;4969;52.304;4.968;2023-04-16T15:04:40;12.16;76.82
9861;DHT22;4969;52.304;4.968;2023-04-16T15:07:06;11.57;79.15
9861;DHT22;4969;52.304;4.968;2023-04-16T15:09:33;11.82;78.48
9861;DHT22;4969;52.304;4.968;2023-04-16T15:12:00;11.74;78.81
9861;DHT22;4969;52.304;4.968;2023-04-16T15:14:28;11.74;78.37
9861;DHT22;4969;52.304;4.968;2023-04-16T15:16:55;11.74;78.35
9861;DHT22;4969;52.304;4.968;2023-04-16T15:19:21;11.57;80.34
9861;DHT22;4969;52.304;4.968;2023-04-16T15:21:48;11.52;81.88
9861;DHT22;4969;52.304;4.968;2023-04-16T15:24:14;11.69;79.05
9861;DHT22;4969;52.304;4.968;2023-04-16T15:26:41;11.54;79.15
9861;DHT22;4969;52.304;4.968;2023-04-16T15:29:07;11.48;79.60
9861;DHT22;4969;52.304;4.968;2023-04-16T15:31:35;11.78;81.24
9861;DHT22;4969;52.304;4.968;2023-04-16T15:34:02;12.30;79.91
9861;DHT22;4969;52.304;4.968;2023-04-16T15:36:29;11.32;80.11
9861;DHT22;4969;52.304;4.968;2023-04-16T15:38:56;11.32;81.35
9861;DHT22;4969;52.304;4.968;2023-04-16T15:41:22;11.57;80.18
9861;DHT22;4969;52.304;4.968;2023-04-16T15:43:49;12.09;80.06
9861;DHT22;4969;52.304;4.968;2023-04-16T15:46:16;11.83;78.78
9861;DHT22;4969;52.304;4.968;2023-04-16T15:48:43;12.00;79.26
9861;DHT22;4969;52.304;4.968;2023-04-16T15:51:10;12.10;78.29
9861;DHT22;4969;52.304;4.968;2023-04-16T15:53:37;11.90;78.11
9861;DHT22;4969;52.304;4.968;2023-04-16T15:56:04;11.59;79.47
9861;DHT22;4969;52.304;4.968;2023-04-16T15:58:30;11.61;79.70
9861;DHT22;4969;52.304;4.968;2023-04-16T16:00:57;11.50;79.84
9861;DHT22;4969;52.304;4.968;2023-04-16T16:03:23;11.62;80.46
9861;DHT22;4969;52.304;4.968;2023-04-16T16:05:51;11.37;80.71
9861;DHT22;4969;52.304;4.968;2023-04-16T16:08:18;11.26;81.13
9861;DHT22;4969;52.304;4.968;2023-04-16T16:10:45;11.67;79.01
9861;DHT22;4969;52.304;4.968;2023-04-16T16:13:11;11.67;78.76